sensor_id;sensor_type;location;lat;lon;timestamp;pressure;altitude;pressure_sealevel;temperature;humidity
72903;BME280;61047;43.282;28.014;2024-01-30T00:01:53;101063.81;;;5.09;61.78
72903;BME280;61047;43.282;28.014;2024-01-30T00:04:19;101062.25;;;5.05;62.16
72903;BME280;61047;43.282;28.014;2024-01-30T00:06:45;101071.09;;;5.02;62.27
72903;BME280;61047;43.282;28.014;2024-01-30T00:09:10;101066.59;;;5.06;62.13
72903;BME280;61047;43.282;28.014;2024-01-30T00:11:39;101072.50;;;5.11;62.28
72903;BME280;61047;43.282;28.014;2024-01-30T00:14:05;101068.63;;;5.20;62.01
72903;BME280;61047;43.282;28.014;2024-01-30T00:16:30;101073.25;;;5.34;61.91
72903;BME280;61047;43.282;28.014;2024-01-30T00:18:56;101070.31;;;5.41;61.99
72903;BME280;61047;43.282;28.014;2024-01-30T00:21:22;101070.44;;;5.38;61.54
72903;BME280;61047;43.282;28.014;2024-01-30T00:23:48;101066.38;;;5.31;61.70
72903;BME280;61047;43.282;28.014;2024-01-30T00:26:14;101060.47;;;5.26;61.76
72903;BME280;61047;43.282;28.014;2024-01-30T00:28:43;101060.13;;;5.34;62.09
72903;BME280;61047;43.282;28.014;2024-01-30T00:31:09;101061.84;;;5.35;61.74
72903;BME280;61047;43.282;28.014;2024-01-30T00:33:38;101071.16;;;5.42;61.76
72903;BME280;61047;43.282;28.014;2024-01-30T00:36:05;101061.38;;;5.45;61.31
72903;BME280;61047;43.282;28.014;2024-01-30T00:38:30;101068.75;;;5.37;61.84
72903;BME280;61047;43.282;28.014;2024-01-30T00:40:56;101072.88;;;5.22;61.98
72903;BME280;61047;43.282;28.014;2024-01-30T00:43:22;101064.47;;;5.14;61.70
72903;BME280;61047;43.282;28.014;2024-01-30T00:45:47;101062.03;;;5.10;61.71
72903;BME280;61047;43.282;28.014;2024-01-30T00:48:13;101062.97;;;5.09;61.70
72903;BME280;61047;43.282;28.014;2024-01-30T00:50:39;101063.03;;;5.07;61.61
72903;BME280;61047;43.282;28.014;2024-01-30T00:53:05;101060.59;;;5.02;62.23
72903;BME280;61047;43.282;28.014;2024-01-30T00:55:31;101065.97;;;4.99;62.52
72903;BME280;61047;43.282;28.014;2024-01-30T00:57:57;101053.50;;;5.04;62.56
72903;BME280;61047;43.282;28.014;2024-01-30T01:00:22;101063.16;;;5.24;61.95
72903;BME280;61047;43.282;28.014;2024-01-30T01:02:57;101066.31;;;5.33;62.04
72903;BME280;61047;43.282;28.014;2024-01-30T01:05:23;101060.97;;;5.34;61.77
72903;BME280;61047;43.282;28.014;2024-01-30T01:07:48;101061.25;;;5.28;61.48
72903;BME280;61047;43.282;28.014;2024-01-30T01:10:14;101056.28;;;5.22;61.84
72903;BME280;61047;43.282;28.014;2024-01-30T01:12:41;101045.81;;;5.20;62.15
72903;BME280;61047;43.282;28.014;2024-01-30T01:15:07;101043.97;;;5.22;62.45
72903;BME280;61047;43.282;28.014;2024-01-30T01:17:35;101040.22;;;5.28;62.37
72903;BME280;61047;43.282;28.014;2024-01-30T01:20:01;101030.31;;;5.35;61.62
72903;BME280;61047;43.282;28.014;2024-01-30T01:22:27;101031.03;;;5.38;61.70
72903;BME280;61047;43.282;28.014;2024-01-30T01:24:53;101046.34;;;5.29;61.77
72903;BME280;61047;43.282;28.014;2024-01-30T01:27:19;101039.91;;;5.15;62.11
72903;BME280;61047;43.282;28.014;2024-01-30T01:29:44;101046.44;;;5.07;61.94
72903;BME280;61047;43.282;28.014;2024-01-30T01:32:10;101040.44;;;5.03;62.10
72903;BME280;61047;43.282;28.014;2024-01-30T01:34:36;101045.81;;;5.00;61.78
72903;BME280;61047;43.282;28.014;2024-01-30T01:37:02;101049.50;;;4.96;62.67
72903;BME280;61047;43.282;28.014;2024-01-30T01:39:28;101035.59;;;4.94;62.60
72903;BME280;61047;43.282;28.014;2024-01-30T01:41:53;101027.72;;;4.94;62.57
72903;BME280;61047;43.282;28.014;2024-01-30T01:44:19;101034.53;;;4.98;62.25
72903;BME280;61047;43.282;28.014;2024-01-30T01:46:44;101032.97;;;5.14;62.50
72903;BME280;61047;43.282;28.014;2024-01-30T01:49:10;101041.94;;;5.29;62.30
72903;BME280;61047;43.282;28.014;2024-01-30T01:51:36;101048.75;;;5.33;62.09
72903;BME280;61047;43.282;28.014;2024-01-30T01:54:04;101057.06;;;5.24;61.84
72903;BME280;61047;43.282;28.014;2024-01-30T01:56:33;101039.13;;;5.13;62.04
72903;BME280;61047;43.282;28.014;2024-01-30T01:59:08;101044.44;;;5.12;61.85
72903;BME280;61047;43.282;28.014;2024-01-30T02:01:34;101045.16;;;5.15;62.39
72903;BME280;61047;43.282;28.014;2024-01-30T02:04:01;101053.56;;;5.23;62.34
72903;BME280;61047;43.282;28.014;2024-01-30T02:06:29;101055.00;;;5.31;62.03
72903;BME280;61047;43.282;28.014;2024-01-30T02:08:55;101044.56;;;5.29;61.96
72903;BME280;61047;43.282;28.014;2024-01-30T02:11:21;101053.69;;;5.20;61.94
72903;BME280;61047;43.282;28.014;2024-01-30T02:13:47;101055.88;;;5.11;62.38
72903;BME280;61047;43.282;28.014;2024-01-30T02:16:13;101050.03;;;5.04;62.26
72903;BME280;61047;43.282;28.014;2024-01-30T02:18:39;101056.28;;;5.01;61.68
72903;BME280;61047;43.282;28.014;2024-01-30T02:21:09;101063.31;;;5.01;61.90
72903;BME280;61047;43.282;28.014;2024-01-30T02:23:34;101060.72;;;4.99;61.66
72903;BME280;61047;43.282;28.014;2024-01-30T02:26:00;101054.69;;;4.97;62.01
72903;BME280;61047;43.282;28.014;2024-01-30T02:28:26;101058.91;;;5.01;62.57
72903;BME280;61047;43.282;28.014;2024-01-30T02:30:52;101064.06;;;5.23;62.47
72903;BME280;61047;43.282;28.014;2024-01-30T02:33:18;101045.34;;;5.31;61.88
72903;BME280;61047;43.282;28.014;2024-01-30T02:35:43;101062.41;;;5.41;61.41
72903;BME280;61047;43.282;28.014;2024-01-30T02:38:09;101057.25;;;5.40;61.71
72903;BME280;61047;43.282;28.014;2024-01-30T02:40:35;101058.28;;;5.36;61.93
72903;BME280;61047;43.282;28.014;2024-01-30T02:43:01;101056.97;;;5.25;61.67
72903;BME280;61047;43.282;28.014;2024-01-30T02:45:27;101058.94;;;5.20;61.58
72903;BME280;61047;43.282;28.014;2024-01-30T02:47:52;101060.03;;;5.16;61.65
72903;BME280;61047;43.282;28.014;2024-01-30T02:50:18;101058.81;;;5.23;62.31
72903;BME280;61047;43.282;28.014;2024-01-30T02:52:43;101068.34;;;5.26;61.92
72903;BME280;61047;43.282;28.014;2024-01-30T02:55:09;101060.69;;;5.21;62.24
72903;BME280;61047;43.282;28.014;2024-01-30T02:57:35;101063.63;;;5.14;62.10
72903;BME280;61047;43.282;28.014;2024-01-30T03:00:01;101055.22;;;5.05;62.18
72903;BME280;61047;43.282;28.014;2024-01-30T03:02:26;101054.63;;;4.99;62.47
72903;BME280;61047;43.282;28.014;2024-01-30T03:04:52;101050.41;;;4.95;62.28
72903;BME280;61047;43.282;28.014;2024-01-30T03:07:18;101054.91;;;4.93;62.15
72903;BME280;61047;43.282;28.014;2024-01-30T03:09:43;101051.41;;;4.92;61.89
72903;BME280;61047;43.282;28.014;2024-01-30T03:12:09;101056.78;;;4.89;62.28
72903;BME280;61047;43.282;28.014;2024-01-30T03:14:35;101056.00;;;4.87;62.68
72903;BME280;61047;43.282;28.014;2024-01-30T03:17:00;101047.94;;;4.92;62.58
72903;BME280;61047;43.282;28.014;2024-01-30T03:19:26;101057.31;;;4.97;62.72
72903;BME280;61047;43.282;28.014;2024-01-30T03:21:52;101052.72;;;5.02;62.59
72903;BME280;61047;43.282;28.014;2024-01-30T03:24:17;101048.31;;;5.03;62.09
72903;BME280;61047;43.282;28.014;2024-01-30T03:26:43;101055.47;;;4.99;62.36
72903;BME280;61047;43.282;28.014;2024-01-30T03:29:09;101043.31;;;4.97;62.06
72903;BME280;61047;43.282;28.014;2024-01-30T03:31:34;101048.31;;;5.03;62.41
72903;BME280;61047;43.282;28.014;2024-01-30T03:34:00;101044.00;;;5.02;61.92
72903;BME280;61047;43.282;28.014;2024-01-30T03:36:26;101038.47;;;5.08;62.35
72903;BME280;61047;43.282;28.014;2024-01-30T03:38:52;101044.38;;;5.13;62.38
72903;BME280;61047;43.282;28.014;2024-01-30T03:41:17;101022.91;;;5.24;62.03
72903;BME280;61047;43.282;28.014;2024-01-30T03:43:43;101037.66;;;5.26;62.06
72903;BME280;61047;43.282;28.014;2024-01-30T03:46:09;101037.41;;;5.33;61.73
72903;BME280;61047;43.282;28.014;2024-01-30T03:48:34;101034.84;;;5.31;62.02
72903;BME280;61047;43.282;28.014;2024-01-30T03:51:00;101038.06;;;5.17;62.03
72903;BME280;61047;43.282;28.014;2024-01-30T03:53:25;101037.41;;;5.12;62.04
72903;BME280;61047;43.282;28.014;2024-01-30T03:55:51;101033.47;;;5.02;61.88
72903;BME280;61047;43.282;28.014;2024-01-30T03:58:17;101040.97;;;4.91;62.55
72903;BME280;61047;43.282;28.014;2024-01-30T04:00:42;101035.19;;;4.82;62.78
72903;BME280;61047;43.282;28.014;2024-01-30T04:03:08;101045.56;;;4.86;62.75
72903;BME280;61047;43.282;28.014;2024-01-30T04:05:33;101037.41;;;4.92;62.67
72903;BME280;61047;43.282;28.014;2024-01-30T04:07:59;101039.00;;;4.96;62.49
72903;BME280;61047;43.282;28.014;2024-01-30T04:10:25;101032.91;;;4.95;62.20
72903;BME280;61047;43.282;28.014;2024-01-30T04:12:51;101023.38;;;4.93;62.63
72903;BME280;61047;43.282;28.014;2024-01-30T04:15:17;101032.69;;;5.00;62.49
72903;BME280;61047;43.282;28.014;2024-01-30T04:17:43;101039.59;;;5.02;62.23
72903;BME280;61047;43.282;28.014;2024-01-30T04:20:13;101029.06;;;5.02;62.46
72903;BME280;61047;43.282;28.014;2024-01-30T04:22:38;101022.69;;;5.08;62.41
72903;BME280;61047;43.282;28.014;2024-01-30T04:25:04;101033.00;;;5.13;62.59
72903;BME280;61047;43.282;28.014;2024-01-30T04:27:29;101032.81;;;5.17;62.44
72903;BME280;61047;43.282;28.014;2024-01-30T04:29:55;101033.47;;;5.22;61.98
72903;BME280;61047;43.282;28.014;2024-01-30T04:32:21;101049.09;;;5.25;62.11
72903;BME280;61047;43.282;28.014;2024-01-30T04:34:46;101048.44;;;5.20;62.18
72903;BME280;61047;43.282;28.014;2024-01-30T04:37:12;101053.22;;;5.11;62.09
72903;BME280;61047;43.282;28.014;2024-01-30T04:39:38;101057.97;;;5.02;61.88
72903;BME280;61047;43.282;28.014;2024-01-30T04:42:03;101061.84;;;4.94;62.25
72903;BME280;61047;43.282;28.014;2024-01-30T04:44:29;101061.38;;;4.84;62.80
72903;BME280;61047;43.282;28.014;2024-01-30T04:46:55;101063.28;;;4.80;62.88
72903;BME280;61047;43.282;28.014;2024-01-30T04:49:24;101053.50;;;4.84;62.88
72903;BME280;61047;43.282;28.014;2024-01-30T04:51:49;101055.94;;;4.89;62.88
72903;BME280;61047;43.282;28.014;2024-01-30T04:54:15;101047.22;;;4.88;62.65
72903;BME280;61047;43.282;28.014;2024-01-30T04:56:41;101040.50;;;4.81;62.90
72903;BME280;61047;43.282;28.014;2024-01-30T04:59:06;101046.72;;;4.78;62.50
72903;BME280;61047;43.282;28.014;2024-01-30T05:01:34;101049.19;;;4.83;62.57
72903;BME280;61047;43.282;28.014;2024-01-30T05:03:59;101053.56;;;4.82;62.27
72903;BME280;61047;43.282;28.014;2024-01-30T05:06:26;101053.19;;;4.92;63.01
72903;BME280;61047;43.282;28.014;2024-01-30T05:08:53;101050.41;;;4.95;62.94
72903;BME280;61047;43.282;28.014;2024-01-30T05:11:19;101042.00;;;4.87;62.85
72903;BME280;61047;43.282;28.014;2024-01-30T05:13:44;101040.38;;;4.84;62.89
72903;BME280;61047;43.282;28.014;2024-01-30T05:16:10;101053.69;;;4.79;62.65
72903;BME280;61047;43.282;28.014;2024-01-30T05:18:36;101052.16;;;4.74;62.90
72903;BME280;61047;43.282;28.014;2024-01-30T05:21:05;101054.88;;;4.72;62.25
72903;BME280;61047;43.282;28.014;2024-01-30T05:23:30;101057.50;;;4.72;62.73
72903;BME280;61047;43.282;28.014;2024-01-30T05:25:56;101054.94;;;4.71;62.45
72903;BME280;61047;43.282;28.014;2024-01-30T05:28:22;101063.88;;;4.67;63.44
72903;BME280;61047;43.282;28.014;2024-01-30T05:30:48;101060.38;;;4.87;63.26
72903;BME280;61047;43.282;28.014;2024-01-30T05:33:13;101059.03;;;4.98;62.91
72903;BME280;61047;43.282;28.014;2024-01-30T05:35:39;101066.38;;;5.11;62.41
72903;BME280;61047;43.282;28.014;2024-01-30T05:38:04;101056.41;;;5.19;62.18
72903;BME280;61047;43.282;28.014;2024-01-30T05:40:30;101067.56;;;5.24;61.88
72903;BME280;61047;43.282;28.014;2024-01-30T05:42:56;101070.41;;;5.19;61.86
72903;BME280;61047;43.282;28.014;2024-01-30T05:45:23;101070.72;;;5.12;61.63
72903;BME280;61047;43.282;28.014;2024-01-30T05:47:49;101068.22;;;5.09;61.73
72903;BME280;61047;43.282;28.014;2024-01-30T05:50:14;101067.25;;;5.11;62.31
72903;BME280;61047;43.282;28.014;2024-01-30T05:52:40;101058.28;;;5.15;62.29
72903;BME280;61047;43.282;28.014;2024-01-30T05:55:06;101074.19;;;5.12;62.20
72903;BME280;61047;43.282;28.014;2024-01-30T05:57:32;101078.53;;;5.13;62.37
72903;BME280;61047;43.282;28.014;2024-01-30T05:59:57;101091.66;;;5.13;61.94
72903;BME280;61047;43.282;28.014;2024-01-30T06:02:23;101091.06;;;5.07;62.30
72903;BME280;61047;43.282;28.014;2024-01-30T06:04:49;101103.47;;;5.03;62.28
72903;BME280;61047;43.282;28.014;2024-01-30T06:07:14;101100.97;;;5.00;62.10
72903;BME280;61047;43.282;28.014;2024-01-30T06:09:40;101110.69;;;4.98;62.24
72903;BME280;61047;43.282;28.014;2024-01-30T06:12:06;101112.41;;;4.99;61.66
72903;BME280;61047;43.282;28.014;2024-01-30T06:14:32;101124.75;;;4.97;62.93
72903;BME280;61047;43.282;28.014;2024-01-30T06:16:58;101116.19;;;5.14;62.66
72903;BME280;61047;43.282;28.014;2024-01-30T06:19:24;101109.25;;;5.32;61.82
72903;BME280;61047;43.282;28.014;2024-01-30T06:21:50;101121.72;;;5.47;61.39
72903;BME280;61047;43.282;28.014;2024-01-30T06:24:15;101119.00;;;5.50;61.30
72903;BME280;61047;43.282;28.014;2024-01-30T06:26:41;101118.06;;;5.51;61.41
72903;BME280;61047;43.282;28.014;2024-01-30T06:29:07;101127.00;;;5.47;61.24
72903;BME280;61047;43.282;28.014;2024-01-30T06:31:33;101121.81;;;5.45;61.08
72903;BME280;61047;43.282;28.014;2024-01-30T06:33:58;101127.97;;;5.44;61.20
72903;BME280;61047;43.282;28.014;2024-01-30T06:36:24;101125.25;;;5.47;61.39
72903;BME280;61047;43.282;28.014;2024-01-30T06:38:49;101120.56;;;5.54;61.63
72903;BME280;61047;43.282;28.014;2024-01-30T06:41:15;101125.03;;;5.52;61.41
72903;BME280;61047;43.282;28.014;2024-01-30T06:43:41;101125.81;;;5.54;61.23
72903;BME280;61047;43.282;28.014;2024-01-30T06:46:06;101137.19;;;5.55;61.07
72903;BME280;61047;43.282;28.014;2024-01-30T06:48:32;101133.50;;;5.59;61.55
72903;BME280;61047;43.282;28.014;2024-01-30T06:50:58;101134.50;;;5.56;61.28
72903;BME280;61047;43.282;28.014;2024-01-30T06:53:23;101140.03;;;5.50;61.05
72903;BME280;61047;43.282;28.014;2024-01-30T06:55:49;101136.59;;;5.48;60.91
72903;BME280;61047;43.282;28.014;2024-01-30T06:58:15;101132.25;;;5.47;60.96
72903;BME280;61047;43.282;28.014;2024-01-30T07:00:41;101135.94;;;5.43;61.37
72903;BME280;61047;43.282;28.014;2024-01-30T07:03:07;101135.28;;;5.58;61.21
72903;BME280;61047;43.282;28.014;2024-01-30T07:05:32;101133.63;;;5.76;60.99
72903;BME280;61047;43.282;28.014;2024-01-30T07:07:58;101133.53;;;5.78;60.72
72903;BME280;61047;43.282;28.014;2024-01-30T07:10:24;101118.00;;;5.92;60.51
72903;BME280;61047;43.282;28.014;2024-01-30T07:12:49;101120.44;;;5.97;60.45
72903;BME280;61047;43.282;28.014;2024-01-30T07:15:15;101118.81;;;5.94;60.19
72903;BME280;61047;43.282;28.014;2024-01-30T07:17:45;101110.78;;;5.97;60.08
72903;BME280;61047;43.282;28.014;2024-01-30T07:20:11;101114.91;;;6.03;60.24
72903;BME280;61047;43.282;28.014;2024-01-30T07:22:36;101110.59;;;6.21;60.03
72903;BME280;61047;43.282;28.014;2024-01-30T07:25:02;101112.91;;;6.27;59.80
72903;BME280;61047;43.282;28.014;2024-01-30T07:27:28;101113.97;;;6.23;59.86
72903;BME280;61047;43.282;28.014;2024-01-30T07:29:53;101121.13;;;6.21;59.84
72903;BME280;61047;43.282;28.014;2024-01-30T07:32:19;101118.34;;;6.24;59.71
72903;BME280;61047;43.282;28.014;2024-01-30T07:34:45;101112.13;;;6.25;59.90
72903;BME280;61047;43.282;28.014;2024-01-30T07:37:10;101136.16;;;6.17;60.21
72903;BME280;61047;43.282;28.014;2024-01-30T07:39:38;101130.00;;;6.18;60.42
72903;BME280;61047;43.282;28.014;2024-01-30T07:42:03;101136.03;;;6.39;59.83
72903;BME280;61047;43.282;28.014;2024-01-30T07:44:29;101127.66;;;6.67;59.49
72903;BME280;61047;43.282;28.014;2024-01-30T07:46:55;101128.53;;;6.85;58.94
72903;BME280;61047;43.282;28.014;2024-01-30T07:49:21;101136.31;;;6.88;58.51
72903;BME280;61047;43.282;28.014;2024-01-30T07:51:46;101124.53;;;6.95;58.52
72903;BME280;61047;43.282;28.014;2024-01-30T07:54:12;101127.88;;;7.16;58.11
72903;BME280;61047;43.282;28.014;2024-01-30T07:56:38;101121.53;;;7.38;57.82
72903;BME280;61047;43.282;28.014;2024-01-30T07:59:03;101118.19;;;7.52;57.41
72903;BME280;61047;43.282;28.014;2024-01-30T08:01:29;101121.81;;;7.66;57.11
72903;BME280;61047;43.282;28.014;2024-01-30T08:03:55;101114.00;;;7.81;56.70
72903;BME280;61047;43.282;28.014;2024-01-30T08:06:20;101120.84;;;7.85;56.52
72903;BME280;61047;43.282;28.014;2024-01-30T08:08:46;101114.41;;;7.73;56.57
72903;BME280;61047;43.282;28.014;2024-01-30T08:11:12;101125.75;;;7.58;57.02
72903;BME280;61047;43.282;28.014;2024-01-30T08:13:37;101125.06;;;7.72;56.92
72903;BME280;61047;43.282;28.014;2024-01-30T08:16:03;101118.81;;;8.06;56.74
72903;BME280;61047;43.282;28.014;2024-01-30T08:18:29;101119.03;;;8.66;55.33
72903;BME280;61047;43.282;28.014;2024-01-30T08:20:55;101113.56;;;8.69;54.73
72903;BME280;61047;43.282;28.014;2024-01-30T08:23:20;101115.28;;;8.54;54.99
72903;BME280;61047;43.282;28.014;2024-01-30T08:25:46;101119.53;;;8.41;55.49
72903;BME280;61047;43.282;28.014;2024-01-30T08:28:11;101122.75;;;8.30;55.72
72903;BME280;61047;43.282;28.014;2024-01-30T08:30:37;101114.22;;;8.25;56.05
72903;BME280;61047;43.282;28.014;2024-01-30T08:33:04;101113.81;;;8.17;56.04
72903;BME280;61047;43.282;28.014;2024-01-30T08:35:30;101110.72;;;8.09;56.26
72903;BME280;61047;43.282;28.014;2024-01-30T08:37:58;101121.34;;;8.07;56.51
72903;BME280;61047;43.282;28.014;2024-01-30T08:40:24;101117.69;;;8.10;56.60
72903;BME280;61047;43.282;28.014;2024-01-30T08:42:50;101108.03;;;8.26;56.39
72903;BME280;61047;43.282;28.014;2024-01-30T08:45:15;101115.25;;;8.39;56.03
72903;BME280;61047;43.282;28.014;2024-01-30T08:47:41;101108.13;;;8.41;56.05
72903;BME280;61047;43.282;28.014;2024-01-30T08:50:07;101117.31;;;8.49;56.13
72903;BME280;61047;43.282;28.014;2024-01-30T08:52:33;101107.31;;;8.70;55.69
72903;BME280;61047;43.282;28.014;2024-01-30T08:54:59;101117.44;;;8.94;55.49
72903;BME280;61047;43.282;28.014;2024-01-30T08:57:25;101116.00;;;9.18;54.33
72903;BME280;61047;43.282;28.014;2024-01-30T08:59:54;101112.47;;;9.34;54.25
72903;BME280;61047;43.282;28.014;2024-01-30T09:02:20;101123.28;;;9.59;54.03
72903;BME280;61047;43.282;28.014;2024-01-30T09:04:46;101107.22;;;9.91;53.29
72903;BME280;61047;43.282;28.014;2024-01-30T09:07:11;101109.34;;;10.13;52.58
72903;BME280;61047;43.282;28.014;2024-01-30T09:09:39;101097.09;;;10.54;52.19
72903;BME280;61047;43.282;28.014;2024-01-30T09:12:06;101098.16;;;10.91;51.25
72903;BME280;61047;43.282;28.014;2024-01-30T09:14:35;101114.41;;;10.99;50.92
72903;BME280;61047;43.282;28.014;2024-01-30T09:17:00;101110.41;;;11.06;51.30
72903;BME280;61047;43.282;28.014;2024-01-30T09:19:26;101105.97;;;11.20;51.30
72903;BME280;61047;43.282;28.014;2024-01-30T09:21:52;101102.59;;;11.30;51.30
72903;BME280;61047;43.282;28.014;2024-01-30T09:24:17;101104.31;;;11.57;50.69
72903;BME280;61047;43.282;28.014;2024-01-30T09:26:43;101094.22;;;11.62;50.74
72903;BME280;61047;43.282;28.014;2024-01-30T09:29:08;101097.94;;;11.59;50.61
72903;BME280;61047;43.282;28.014;2024-01-30T09:31:34;101099.19;;;11.41;51.09
72903;BME280;61047;43.282;28.014;2024-01-30T09:34:00;101100.91;;;11.29;51.37
72903;BME280;61047;43.282;28.014;2024-01-30T09:36:25;101096.22;;;11.33;51.48
72903;BME280;61047;43.282;28.014;2024-01-30T09:38:51;101086.88;;;11.27;51.31
72903;BME280;61047;43.282;28.014;2024-01-30T09:41:17;101093.75;;;11.04;51.47
72903;BME280;61047;43.282;28.014;2024-01-30T09:43:45;101088.94;;;10.97;51.53
72903;BME280;61047;43.282;28.014;2024-01-30T09:46:13;101077.22;;;11.01;51.79
72903;BME280;61047;43.282;28.014;2024-01-30T09:48:44;101079.09;;;10.99;51.66
72903;BME280;61047;43.282;28.014;2024-01-30T09:51:11;101083.06;;;11.19;51.28
72903;BME280;61047;43.282;28.014;2024-01-30T09:53:38;101078.19;;;11.38;51.02
72903;BME280;61047;43.282;28.014;2024-01-30T09:56:05;101063.56;;;11.58;50.98
72903;BME280;61047;43.282;28.014;2024-01-30T09:58:31;101063.88;;;11.66;51.03
72903;BME280;61047;43.282;28.014;2024-01-30T10:00:57;101072.44;;;11.70;50.99
72903;BME280;61047;43.282;28.014;2024-01-30T10:03:22;101072.22;;;11.86;51.08
72903;BME280;61047;43.282;28.014;2024-01-30T10:05:51;101079.44;;;11.96;50.93
72903;BME280;61047;43.282;28.014;2024-01-30T10:08:20;101068.19;;;11.93;50.76
72903;BME280;61047;43.282;28.014;2024-01-30T10:10:48;101075.31;;;11.92;50.88
72903;BME280;61047;43.282;28.014;2024-01-30T10:13:15;101067.34;;;12.05;50.67
72903;BME280;61047;43.282;28.014;2024-01-30T10:15:41;101067.09;;;12.08;50.53
72903;BME280;61047;43.282;28.014;2024-01-30T10:18:08;101066.63;;;12.27;50.57
72903;BME280;61047;43.282;28.014;2024-01-30T10:20:35;101073.28;;;12.33;50.51
72903;BME280;61047;43.282;28.014;2024-01-30T10:23:01;101065.50;;;12.42;50.53
72903;BME280;61047;43.282;28.014;2024-01-30T10:25:27;101071.09;;;12.51;49.75
72903;BME280;61047;43.282;28.014;2024-01-30T10:27:54;101070.06;;;12.40;49.84
72903;BME280;61047;43.282;28.014;2024-01-30T10:30:23;101069.75;;;12.45;49.65
72903;BME280;61047;43.282;28.014;2024-01-30T10:32:49;101063.34;;;12.47;49.89
72903;BME280;61047;43.282;28.014;2024-01-30T10:35:15;101056.78;;;12.40;49.85
72903;BME280;61047;43.282;28.014;2024-01-30T10:37:44;101057.53;;;12.42;50.02
72903;BME280;61047;43.282;28.014;2024-01-30T10:40:12;101061.81;;;12.56;49.55
72903;BME280;61047;43.282;28.014;2024-01-30T10:42:39;101039.53;;;12.70;49.31
72903;BME280;61047;43.282;28.014;2024-01-30T10:45:11;101054.38;;;12.97;49.81
72903;BME280;61047;43.282;28.014;2024-01-30T10:47:53;101055.78;;;13.25;49.24
72903;BME280;61047;43.282;28.014;2024-01-30T10:50:20;101055.47;;;13.41;48.60
72903;BME280;61047;43.282;28.014;2024-01-30T10:52:45;101056.81;;;13.46;48.65
72903;BME280;61047;43.282;28.014;2024-01-30T10:55:12;101058.47;;;13.47;49.21
72903;BME280;61047;43.282;28.014;2024-01-30T10:57:37;101041.19;;;13.42;47.99
72903;BME280;61047;43.282;28.014;2024-01-30T11:00:21;101038.28;;;13.45;48.60
72903;BME280;61047;43.282;28.014;2024-01-30T11:02:49;101044.47;;;13.45;48.42
72903;BME280;61047;43.282;28.014;2024-01-30T11:05:15;101047.09;;;13.34;49.29
72903;BME280;61047;43.282;28.014;2024-01-30T11:07:48;101041.84;;;13.21;49.60
72903;BME280;61047;43.282;28.014;2024-01-30T11:10:14;101041.31;;;12.94;49.52
72903;BME280;61047;43.282;28.014;2024-01-30T11:12:40;101038.25;;;12.87;49.66
72903;BME280;61047;43.282;28.014;2024-01-30T11:15:16;101043.81;;;12.84;50.11
72903;BME280;61047;43.282;28.014;2024-01-30T11:20:11;101033.00;;;12.74;49.96
72903;BME280;61047;43.282;28.014;2024-01-30T11:22:37;101026.09;;;12.60;50.34
72903;BME280;61047;43.282;28.014;2024-01-30T11:25:03;101038.88;;;12.55;50.57
72903;BME280;61047;43.282;28.014;2024-01-30T11:27:30;101022.91;;;12.55;50.89
72903;BME280;61047;43.282;28.014;2024-01-30T11:30:03;101021.38;;;12.64;50.92
72903;BME280;61047;43.282;28.014;2024-01-30T11:32:29;101014.94;;;12.90;50.40
72903;BME280;61047;43.282;28.014;2024-01-30T11:34:55;101020.00;;;13.29;50.09
72903;BME280;61047;43.282;28.014;2024-01-30T11:37:21;101008.75;;;13.59;49.05
72903;BME280;61047;43.282;28.014;2024-01-30T11:39:47;101005.75;;;13.64;49.36
72903;BME280;61047;43.282;28.014;2024-01-30T11:42:13;101001.50;;;13.61;49.05
72903;BME280;61047;43.282;28.014;2024-01-30T11:44:39;101002.34;;;13.62;49.14
72903;BME280;61047;43.282;28.014;2024-01-30T11:47:04;100994.22;;;13.63;48.53
72903;BME280;61047;43.282;28.014;2024-01-30T11:49:30;100996.53;;;13.68;48.58
72903;BME280;61047;43.282;28.014;2024-01-30T11:51:56;101001.00;;;13.67;49.12
72903;BME280;61047;43.282;28.014;2024-01-30T11:54:22;101007.06;;;13.58;48.31
72903;BME280;61047;43.282;28.014;2024-01-30T11:56:48;101008.28;;;13.54;48.69
72903;BME280;61047;43.282;28.014;2024-01-30T11:59:13;101005.25;;;13.59;49.50
72903;BME280;61047;43.282;28.014;2024-01-30T12:01:39;100998.22;;;13.46;49.96
72903;BME280;61047;43.282;28.014;2024-01-30T12:04:07;100992.78;;;13.70;49.46
72903;BME280;61047;43.282;28.014;2024-01-30T12:06:34;100976.22;;;14.10;48.75
72903;BME280;61047;43.282;28.014;2024-01-30T12:09:01;100975.94;;;14.25;48.21
72903;BME280;61047;43.282;28.014;2024-01-30T12:11:29;100981.06;;;14.16;47.75
72903;BME280;61047;43.282;28.014;2024-01-30T12:13:55;100986.03;;;14.10;48.00
72903;BME280;61047;43.282;28.014;2024-01-30T12:16:21;100981.19;;;14.15;48.84
72903;BME280;61047;43.282;28.014;2024-01-30T12:18:47;100987.59;;;14.23;48.95
72903;BME280;61047;43.282;28.014;2024-01-30T12:21:16;100981.78;;;14.18;48.77
72903;BME280;61047;43.282;28.014;2024-01-30T12:23:41;100982.44;;;13.99;49.17
72903;BME280;61047;43.282;28.014;2024-01-30T12:26:07;100986.69;;;13.91;49.57
72903;BME280;61047;43.282;28.014;2024-01-30T12:28:33;100985.84;;;13.90;48.53
72903;BME280;61047;43.282;28.014;2024-01-30T12:31:02;100974.56;;;13.87;48.34
72903;BME280;61047;43.282;28.014;2024-01-30T12:33:29;100978.34;;;13.84;49.43
72903;BME280;61047;43.282;28.014;2024-01-30T12:35:54;100983.31;;;13.89;49.41
72903;BME280;61047;43.282;28.014;2024-01-30T12:38:20;100981.94;;;14.06;48.70
72903;BME280;61047;43.282;28.014;2024-01-30T12:40:46;100988.38;;;13.92;48.63
72903;BME280;61047;43.282;28.014;2024-01-30T12:43:13;100975.19;;;13.79;49.26
72903;BME280;61047;43.282;28.014;2024-01-30T12:45:39;100990.47;;;13.66;50.34